Nitra, Slovakia

10:39 PM CEST on May 22, 2015 (GMT +0200)
INITRANI2 | | Change Station
CLOSE
Current Station
Personal Weather Station
Location: Nitrianske Hrnciarovce, Nitriansky kraj
Elevation: 837 ft
Nearby Weather Stations

Elev 837 ft 48.34 °N, 18.13 °E | Updated 4 minutes ago

Overcast
Overcast
56.3 °F
Feels Like 56.3 °F
N
2.0
Wind Variable Wind from NNE
Gusts 6.0 mph

Today
High -- | Low -- °F
--% Chance of Precip.
Yesterday
High -- | Low -- °F
Precip. -- in
5:00 AM 8:28 PM
Waxing Crescent, 24% visible
Pressure 30.04 in
Visibility 6.2 miles
Clouds Few 1600 ft
Mostly Cloudy 2300 ft
Overcast 2500 ft
Dew Point 52 °F
Humidity 84%
Rainfall 0.05 in
Snow Depth Not available.
UV 0 out of 12
Pollen Not available.
Air Quality Not available.
Flu Activity Not available.
METAR LZIB 222030Z 01005KT 9999 -RA FEW016 BKN023 OVC025 12/10 Q1017

More Conditions Fewer Conditions

Pressure 30.04 in
Visibility 6.2 miles
Clouds Few 1600 ft
Mostly Cloudy 2300 ft
Overcast 2500 ft
Dew Point 52 °F
Humidity 84%
Rainfall 0.05 in
Snow Depth Not available.
UV 0 out of 12
Pollen Not available.
Air Quality Not available.
Flu Activity Not available.
METAR LZIB 222030Z 01005KT 9999 -RA FEW016 BKN023 OVC025 12/10 Q1017

More Conditions Fewer Conditions

10-Day Weather Forecast

Almanac

Astronomy

May. 22, 2015 Rise Set
Actual Time
Civil Twilight
Nautical Twilight
Astronomical Twilight
Moon
Length of Visible Light
Length of Day
Tomorrow will be .
, % of the Moon is Illuminated

Today's Extremes

Country Highs Country Lows

Community

WunderPhotos

Upload Photos

1,823,288 photos uploaded!

WunderBlogs® & News

Nearby

Air Quality

  Air Quality AQ Index Pollutant
Not available.

Snow Depth

Station Depth Elevation

Earthquake Activity

City Distance Mag. Time & Date
Minimum magnitude displayed is 2.5.

Coastal Water Temperatures

Place Temperature

Stations

Nearby Weather Stations

Station Location Temp. Windchill Dew Point Humidity Wind Precip. Elev Updated Type